CYGP

Gaspé (Michel-Pouliot) Airport

ICAO Code CYGP
IATA Code YGP
Name Gaspé (Michel-Pouliot) Airport
Location Gaspé, Quebec, CA
Elevation 112 Feet / 34.1 Meters
Latitude 48.77500000
Longitude -64.48166667
METAR CYGP 131600Z 33009G18KT 260V040 15SM FEW055 FEW300 13/M02 A2991 RMK CU1CI1 SLP131
Extra information Display Charts and CFS
Display NOTAMS
Runway Length Width Surface Elevation
10 5488 ft 150 ft ASP 112 ft
28 5488 ft 150 ft ASP 89 ft

Mandatory Routes

Gaspé (Michel-Pouliot) Airport

Direction Destination Level Remark Type Route
DEP TO W H RNAV MIVAX